createdAt,value
2018-11-04T00:01:35.395Z,2.10
2018-11-04T00:04:04.437Z,2.00
2018-11-04T00:06:33.553Z,2.00
2018-11-04T00:09:02.730Z,2.00
2018-11-04T00:11:31.896Z,2.00
2018-11-04T00:14:01.049Z,2.00
2018-11-04T00:16:30.117Z,2.00
2018-11-04T00:18:59.257Z,2.00
2018-11-04T00:21:28.181Z,2.00
2018-11-04T00:23:58.235Z,2.00
2018-11-04T00:26:27.157Z,2.00
2018-11-04T00:28:56.056Z,2.00
2018-11-04T00:31:24.950Z,2.00
2018-11-04T00:33:53.832Z,2.00
2018-11-04T00:36:23.362Z,2.00
2018-11-04T00:38:52.185Z,2.10
2018-11-04T00:41:21.058Z,2.10
2018-11-04T00:43:50.076Z,2.10
2018-11-04T00:46:19.231Z,2.10
2018-11-04T00:48:48.362Z,2.10
2018-11-04T00:54:00.073Z,1.10
2018-11-04T00:56:28.881Z,2.00
2018-11-04T00:58:58.243Z,2.00
2018-11-04T01:01:27.384Z,2.00
2018-11-04T01:03:56.364Z,2.00
2018-11-04T01:06:25.408Z,2.00
2018-11-04T01:08:54.523Z,1.90
2018-11-04T01:11:23.544Z,1.90
2018-11-04T01:13:52.529Z,1.90
2018-11-04T01:16:21.527Z,1.90
2018-11-04T01:18:50.325Z,1.90
2018-11-04T01:21:19.210Z,1.90
2018-11-04T01:23:48.023Z,1.90
2018-11-04T01:26:17.139Z,1.90
2018-11-04T01:28:45.945Z,1.90
2018-11-04T01:31:14.787Z,1.90
2018-11-04T01:33:43.691Z,1.90
2018-11-04T01:36:12.566Z,2.00
2018-11-04T01:38:41.357Z,2.00
2018-11-04T01:41:10.174Z,2.00
2018-11-04T01:43:39.078Z,2.00
2018-11-04T01:46:07.931Z,2.00
2018-11-04T01:48:37.625Z,2.00
2018-11-04T01:51:06.441Z,2.00
2018-11-04T01:53:35.281Z,2.00
2018-11-04T01:56:04.113Z,2.00
2018-11-04T01:58:33.188Z,1.90
2018-11-04T02:01:02.287Z,1.90
2018-11-04T02:03:31.306Z,1.90
2018-11-04T02:06:00.535Z,1.90
2018-11-04T02:08:30.588Z,1.90
2018-11-04T02:10:59.611Z,1.90
2018-11-04T02:13:28.628Z,1.90
2018-11-04T02:15:57.672Z,1.90
2018-11-04T02:18:26.584Z,1.90
2018-11-04T02:20:55.674Z,1.90
2018-11-04T02:23:24.529Z,1.90
2018-11-04T02:25:53.380Z,1.90
2018-11-04T02:28:22.241Z,1.90
2018-11-04T02:30:52.185Z,1.90
2018-11-04T02:33:21.085Z,1.90
2018-11-04T02:35:49.938Z,1.90
2018-11-04T02:38:18.774Z,1.90
2018-11-04T02:40:47.573Z,1.80
2018-11-04T02:43:16.372Z,1.80
2018-11-04T02:45:45.209Z,1.90
2018-11-04T02:48:14.038Z,1.90
2018-11-04T02:50:42.895Z,2.00
2018-11-04T02:53:13.145Z,2.00
2018-11-04T02:55:42.014Z,2.10
2018-11-04T02:58:10.856Z,2.20
2018-11-04T03:00:39.714Z,2.20
2018-11-04T03:03:08.538Z,2.30
2018-11-04T03:05:37.549Z,2.40
2018-11-04T03:08:06.342Z,2.50
2018-11-04T03:10:35.249Z,2.50
2018-11-04T03:13:04.031Z,2.60
2018-11-04T03:15:34.097Z,2.60
2018-11-04T03:18:02.950Z,2.60
2018-11-04T03:20:31.740Z,2.60
2018-11-04T03:23:00.593Z,2.60
2018-11-04T03:25:29.416Z,2.70
2018-11-04T03:27:58.342Z,2.70
2018-11-04T03:30:27.165Z,2.80
2018-11-04T03:32:56.010Z,2.80
2018-11-04T03:35:24.837Z,2.80
2018-11-04T03:37:54.068Z,2.90
2018-11-04T03:40:22.934Z,2.90
2018-11-04T03:42:51.742Z,2.90
2018-11-04T03:45:20.544Z,3.00
2018-11-04T03:47:49.377Z,3.00
2018-11-04T03:50:18.321Z,3.00
2018-11-04T03:52:47.193Z,3.00
2018-11-04T03:55:16.021Z,2.90
2018-11-04T03:57:44.870Z,3.00
2018-11-04T04:00:14.253Z,3.00
2018-11-04T04:02:43.866Z,3.00
2018-11-04T04:05:12.658Z,3.10
2018-11-04T04:07:41.529Z,3.20
2018-11-04T04:10:10.361Z,3.30
2018-11-04T04:12:39.207Z,3.30
2018-11-04T04:15:09.126Z,3.40
2018-11-04T04:17:37.952Z,3.50
2018-11-04T04:20:07.118Z,3.50
2018-11-04T04:22:36.068Z,3.50
2018-11-04T04:25:05.149Z,3.60
2018-11-04T04:27:34.000Z,3.60
2018-11-04T04:30:02.813Z,3.70
2018-11-04T04:32:31.650Z,3.70
2018-11-04T04:35:00.590Z,3.80
2018-11-04T04:37:29.581Z,3.80
2018-11-04T04:39:58.420Z,3.80
2018-11-04T04:42:27.250Z,3.90
2018-11-04T04:44:56.122Z,3.90
2018-11-04T04:47:24.973Z,4.00
2018-11-04T04:49:55.154Z,4.00
2018-11-04T04:52:24.004Z,4.00
2018-11-04T04:54:52.834Z,4.10
2018-11-04T04:57:21.709Z,4.10
2018-11-04T04:59:51.037Z,4.20
2018-11-04T05:02:19.854Z,4.20
2018-11-04T05:04:48.672Z,4.20
2018-11-04T05:07:17.478Z,4.30
2018-11-04T05:09:46.341Z,4.30
2018-11-04T05:12:15.378Z,4.30
2018-11-04T05:14:44.211Z,4.30
2018-11-04T05:17:13.098Z,4.40
2018-11-04T05:19:41.960Z,4.40
2018-11-04T05:22:10.814Z,4.50
2018-11-04T05:24:39.641Z,4.50
2018-11-04T05:27:08.457Z,4.50
2018-11-04T05:29:37.373Z,4.60
2018-11-04T05:32:06.202Z,4.60
2018-11-04T05:34:35.063Z,4.60
2018-11-04T05:37:03.921Z,4.70
2018-11-04T05:39:32.762Z,4.70
2018-11-04T05:42:01.572Z,4.80
2018-11-04T05:44:30.398Z,4.80
2018-11-04T05:46:59.282Z,4.80
2018-11-04T05:49:28.133Z,4.80
2018-11-04T05:51:57.001Z,4.90
2018-11-04T05:54:25.869Z,4.90
2018-11-04T05:56:54.754Z,5.00
2018-11-04T05:59:23.544Z,5.00
2018-11-04T06:01:52.329Z,5.00
2018-11-04T06:04:21.197Z,5.10
2018-11-04T06:06:50.001Z,5.10
2018-11-04T06:09:18.841Z,5.20
2018-11-04T06:11:47.634Z,5.20
2018-11-04T06:14:16.428Z,5.20
2018-11-04T06:16:45.274Z,5.30
2018-11-04T06:19:14.302Z,5.30
2018-11-04T06:21:43.150Z,5.30
2018-11-04T06:24:12.001Z,5.30
2018-11-04T06:26:40.891Z,5.40
2018-11-04T06:29:09.872Z,5.50
2018-11-04T06:31:38.702Z,5.50
2018-11-04T06:34:07.500Z,5.50
2018-11-04T06:36:36.350Z,5.50
2018-11-04T06:39:06.853Z,5.50
2018-11-04T06:41:35.749Z,5.60
2018-11-04T06:44:04.853Z,5.60
2018-11-04T06:46:33.721Z,5.60
2018-11-04T06:49:02.681Z,5.60
2018-11-04T06:51:31.745Z,5.70
2018-11-04T06:54:00.657Z,5.80
2018-11-04T06:56:29.486Z,5.80
2018-11-04T06:58:58.330Z,5.80
2018-11-04T07:01:27.263Z,5.90
2018-11-04T07:04:07.329Z,5.90
2018-11-04T07:06:36.173Z,5.90
2018-11-04T07:09:07.386Z,6.00
2018-11-04T07:11:36.266Z,6.10
2018-11-04T07:14:05.421Z,6.10
2018-11-04T07:16:34.312Z,6.20
2018-11-04T07:19:03.241Z,6.20
2018-11-04T07:21:32.064Z,6.30
2018-11-04T07:24:01.902Z,6.30
2018-11-04T07:26:30.812Z,6.30
2018-11-04T07:28:59.698Z,6.40
2018-11-04T07:31:28.557Z,6.40
2018-11-04T07:33:57.419Z,6.40
2018-11-04T07:36:26.237Z,6.50
2018-11-04T07:38:55.033Z,6.50
2018-11-04T07:41:23.891Z,6.50
2018-11-04T07:43:52.721Z,6.60
2018-11-04T07:46:21.593Z,6.60
2018-11-04T07:48:50.453Z,6.70
2018-11-04T07:51:19.320Z,6.80
2018-11-04T07:53:48.105Z,6.80
2018-11-04T07:56:16.952Z,6.80
2018-11-04T07:58:45.954Z,6.80
2018-11-04T08:01:14.813Z,6.90
2018-11-04T08:08:36.841Z,7.10
2018-11-04T08:11:05.729Z,7.10
2018-11-04T08:13:34.674Z,7.20
2018-11-04T08:16:03.389Z,7.20
2018-11-04T08:18:32.375Z,7.30
2018-11-04T08:26:00.014Z,7.30
2018-11-04T08:28:28.858Z,7.40
2018-11-04T08:30:58.435Z,7.40
2018-11-04T08:33:27.211Z,7.50
2018-11-04T08:35:56.117Z,7.60
2018-11-04T08:38:24.962Z,7.60
2018-11-04T08:40:53.772Z,7.60
2018-11-04T08:43:22.689Z,7.70
2018-11-04T08:45:51.559Z,7.80
2018-11-04T08:48:20.290Z,7.90
2018-11-04T08:50:49.173Z,8.00
2018-11-04T08:53:18.021Z,8.00
2018-11-04T08:55:47.094Z,8.10
2018-11-04T08:58:16.102Z,8.20
2018-11-04T09:00:44.970Z,8.30
2018-11-04T09:03:13.793Z,8.50
2018-11-04T09:05:42.725Z,8.50
2018-11-04T09:08:11.724Z,8.60
2018-11-04T09:10:40.709Z,8.70
2018-11-04T09:13:09.544Z,8.80
2018-11-04T09:15:38.325Z,8.80
2018-11-04T09:18:07.369Z,8.90
2018-11-04T09:20:36.449Z,8.90
2018-11-04T09:23:05.628Z,9.00
2018-11-04T09:25:34.563Z,9.00
2018-11-04T09:28:03.389Z,9.10
2018-11-04T09:30:32.408Z,9.10
2018-11-04T09:33:01.649Z,9.20
2018-11-04T09:35:31.445Z,9.30
2018-11-04T09:38:00.424Z,9.40
2018-11-04T09:40:29.467Z,9.40
2018-11-04T09:42:58.438Z,9.50
2018-11-04T09:45:27.381Z,9.50
2018-11-04T09:47:56.317Z,9.60
2018-11-04T09:50:25.217Z,9.60
2018-11-04T09:52:54.258Z,9.70
2018-11-04T09:57:41.141Z,9.70
2018-11-04T10:00:11.230Z,9.80
2018-11-04T10:02:40.482Z,9.90
2018-11-04T10:05:10.442Z,9.90
2018-11-04T10:07:39.549Z,9.90
2018-11-04T10:10:10.398Z,9.90
2018-11-04T10:12:40.019Z,10.00
2018-11-04T10:15:09.590Z,10.00
2018-11-04T10:17:39.082Z,10.00
2018-11-04T10:20:09.345Z,10.00
2018-11-04T10:22:37.826Z,10.10
2018-11-04T10:25:07.675Z,10.10
2018-11-04T10:27:36.748Z,10.10
2018-11-04T10:30:07.714Z,10.20
2018-11-04T10:32:36.573Z,10.20
2018-11-04T10:35:05.770Z,10.30
2018-11-04T10:37:34.634Z,10.30
2018-11-04T10:40:05.524Z,10.30
2018-11-04T10:42:34.373Z,10.30
2018-11-04T10:45:03.621Z,10.30
2018-11-04T10:47:32.637Z,10.40
2018-11-04T10:50:01.581Z,10.40
2018-11-04T10:52:30.406Z,10.40
2018-11-04T10:54:59.354Z,10.50
2018-11-04T10:57:29.046Z,10.60
2018-11-04T10:59:57.900Z,10.60
2018-11-04T11:02:26.801Z,10.60
2018-11-04T11:04:55.718Z,10.60
2018-11-04T11:07:24.590Z,10.70
2018-11-04T11:09:53.412Z,10.70
2018-11-04T11:12:22.250Z,10.80
2018-11-04T11:14:51.093Z,10.80
2018-11-04T11:17:19.965Z,10.80
2018-11-04T11:19:48.865Z,10.90
2018-11-04T11:22:17.696Z,10.90
2018-11-04T11:26:56.078Z,11.10
2018-11-04T11:29:24.914Z,10.40
2018-11-04T11:31:53.757Z,11.10
2018-11-04T11:34:22.623Z,11.10
2018-11-04T11:36:51.536Z,11.10
2018-11-04T11:39:20.401Z,11.10
2018-11-04T11:41:49.309Z,11.20
2018-11-04T11:44:18.593Z,11.20
2018-11-04T11:46:47.489Z,11.20
2018-11-04T11:49:16.334Z,11.20
2018-11-04T11:51:45.322Z,11.30
2018-11-04T11:54:14.398Z,11.30
2018-11-04T11:56:43.349Z,11.30
2018-11-04T12:04:10.798Z,11.40
2018-11-04T12:06:39.661Z,11.40
2018-11-04T12:09:09.023Z,11.40
2018-11-04T12:11:38.090Z,11.50
2018-11-04T12:14:07.102Z,11.50
2018-11-04T12:16:36.066Z,11.50
2018-11-04T12:19:04.913Z,11.60
2018-11-04T12:26:33.215Z,11.80
2018-11-04T12:29:02.067Z,11.80
2018-11-04T12:31:30.865Z,11.80
2018-11-04T12:33:59.765Z,11.80
2018-11-04T12:36:28.613Z,11.80
2018-11-04T12:38:57.419Z,11.80
2018-11-04T12:41:26.317Z,11.80
2018-11-04T12:43:57.238Z,11.80
2018-11-04T12:46:26.182Z,11.80
2018-11-04T12:48:55.015Z,11.80
2018-11-04T12:51:23.997Z,11.80
2018-11-04T12:53:52.848Z,11.90
2018-11-04T12:56:21.740Z,12.00
2018-11-04T12:58:50.618Z,12.00
2018-11-04T13:01:19.578Z,12.00
2018-11-04T13:03:48.404Z,12.10
2018-11-04T13:06:17.301Z,12.10
2018-11-04T13:08:46.389Z,12.20
2018-11-04T13:11:16.233Z,12.20
2018-11-04T13:13:45.088Z,12.30
2018-11-04T13:16:13.933Z,12.30
2018-11-04T13:18:42.888Z,12.30
2018-11-04T13:21:11.820Z,12.40
2018-11-04T13:23:40.645Z,12.40
2018-11-04T13:26:09.479Z,12.40
2018-11-04T13:28:38.367Z,12.40
2018-11-04T13:31:07.359Z,12.40
2018-11-04T13:38:28.647Z,12.30
2018-11-04T13:40:57.550Z,12.30
2018-11-04T13:43:26.440Z,12.30
2018-11-04T13:45:55.165Z,12.30
2018-11-04T13:48:24.082Z,12.30
2018-11-04T13:50:52.890Z,12.40
2018-11-04T13:53:21.738Z,12.40
2018-11-04T13:55:50.564Z,12.40
2018-11-04T13:58:19.464Z,12.40
2018-11-04T14:00:48.234Z,12.40
2018-11-04T14:03:17.140Z,12.50
2018-11-04T14:05:45.990Z,12.50
2018-11-04T14:08:14.844Z,12.50
2018-11-04T14:10:43.738Z,12.50
2018-11-04T14:13:12.800Z,12.50
2018-11-04T14:15:41.579Z,12.50
2018-11-04T14:18:10.380Z,12.50
2018-11-04T14:20:39.230Z,12.50
2018-11-04T14:23:08.072Z,12.50
2018-11-04T14:25:38.022Z,12.50
2018-11-04T14:28:06.887Z,12.50
2018-11-04T14:30:35.791Z,12.50
2018-11-04T14:33:04.683Z,12.40
2018-11-04T14:35:33.541Z,12.40
2018-11-04T14:38:02.415Z,12.40
2018-11-04T14:40:32.138Z,12.40
2018-11-04T14:43:01.009Z,12.30
2018-11-04T14:45:29.932Z,12.30
2018-11-04T14:47:58.758Z,12.20
2018-11-04T14:50:27.872Z,12.30
2018-11-04T14:52:56.889Z,12.30
2018-11-04T14:55:25.592Z,12.20
2018-11-04T14:57:54.486Z,12.20
2018-11-04T15:00:23.364Z,12.20
2018-11-04T15:02:53.136Z,12.10
2018-11-04T15:05:22.152Z,12.10
2018-11-04T15:07:50.959Z,12.10
2018-11-04T15:10:19.848Z,12.00
2018-11-04T15:12:48.705Z,12.00
2018-11-04T15:15:17.936Z,12.00
2018-11-04T15:17:46.788Z,11.90
2018-11-04T15:20:15.653Z,11.90
2018-11-04T15:22:49.418Z,11.80
2018-11-04T15:25:19.371Z,11.80
2018-11-04T15:27:48.505Z,11.80
2018-11-04T15:35:22.841Z,11.70
2018-11-04T15:37:51.700Z,11.70
2018-11-04T15:40:20.533Z,11.60
2018-11-04T15:42:49.340Z,11.60
2018-11-04T15:45:18.270Z,11.50
2018-11-04T15:47:47.086Z,11.50
2018-11-04T15:50:17.310Z,11.50
2018-11-04T15:52:46.654Z,11.50
2018-11-04T15:55:15.950Z,11.50
2018-11-04T15:57:44.842Z,11.50
2018-11-04T16:00:14.744Z,11.50
2018-11-04T16:02:43.778Z,11.40
2018-11-04T16:05:12.722Z,11.40
2018-11-04T16:07:41.589Z,11.40
2018-11-04T16:10:11.536Z,11.40
2018-11-04T16:12:40.505Z,11.40
2018-11-04T16:15:11.410Z,11.30
2018-11-04T16:17:40.531Z,11.30
2018-11-04T16:20:11.099Z,11.30
2018-11-04T16:22:40.577Z,11.30
2018-11-04T16:25:10.118Z,11.20
2018-11-04T16:27:39.146Z,11.20
2018-11-04T16:30:09.320Z,11.20
2018-11-04T16:32:38.497Z,11.20
2018-11-04T16:35:08.533Z,11.20
2018-11-04T16:37:37.491Z,11.10
2018-11-04T16:40:06.670Z,11.10
2018-11-04T16:42:35.537Z,11.10
2018-11-04T16:45:07.756Z,11.00
2018-11-04T16:47:36.931Z,11.00
2018-11-04T16:50:06.687Z,11.00
2018-11-04T16:52:35.448Z,11.10
2018-11-04T16:55:04.700Z,11.10
2018-11-04T16:57:36.209Z,11.00
2018-11-04T17:00:06.093Z,11.00
2018-11-04T17:02:34.930Z,11.00
2018-11-04T17:05:03.847Z,11.00
2018-11-04T17:07:32.869Z,11.00
2018-11-04T17:10:01.842Z,11.00
2018-11-04T17:12:30.902Z,10.90
2018-11-04T17:14:59.973Z,10.90
2018-11-04T17:17:28.857Z,10.90
2018-11-04T17:19:57.721Z,10.80
2018-11-04T17:22:26.588Z,10.90
2018-11-04T17:24:55.550Z,10.90
2018-11-04T17:27:24.557Z,10.80
2018-11-04T17:29:53.362Z,10.80
2018-11-04T17:32:22.446Z,10.80
2018-11-04T17:34:51.551Z,10.80
2018-11-04T17:37:20.387Z,10.80
2018-11-04T17:39:49.281Z,10.70
2018-11-04T17:42:18.197Z,10.70
2018-11-04T17:44:47.202Z,10.70
2018-11-04T17:47:15.991Z,10.80
2018-11-04T17:49:44.880Z,10.80
2018-11-04T17:52:13.814Z,10.70
2018-11-04T17:54:42.852Z,10.70
2018-11-04T17:57:14.062Z,10.70
2018-11-04T17:59:44.344Z,10.70
2018-11-04T18:02:13.278Z,10.70
2018-11-04T18:04:42.326Z,10.70
2018-11-04T18:07:11.205Z,10.70
2018-11-04T18:14:39.459Z,10.60
2018-11-04T18:17:08.352Z,10.60
2018-11-04T18:19:39.261Z,10.50
2018-11-04T18:22:08.054Z,10.50
2018-11-04T18:24:36.901Z,10.50
2018-11-04T18:27:05.772Z,10.50
2018-11-04T18:29:34.622Z,10.50
2018-11-04T18:32:03.539Z,10.50
2018-11-04T18:34:32.393Z,10.50
2018-11-04T18:37:01.246Z,10.40
2018-11-04T18:39:30.109Z,10.40
2018-11-04T18:41:58.916Z,10.40
2018-11-04T18:44:27.848Z,10.50
2018-11-04T18:46:56.751Z,10.40
2018-11-04T18:49:25.638Z,10.30
2018-11-04T18:51:54.525Z,10.30
2018-11-04T18:54:23.481Z,10.30
2018-11-04T18:56:52.472Z,10.30
2018-11-04T18:59:21.476Z,10.30
2018-11-04T19:01:50.287Z,10.20
2018-11-04T19:04:19.245Z,10.20
2018-11-04T19:06:48.152Z,10.20
2018-11-04T19:09:16.963Z,10.10
2018-11-04T19:11:45.902Z,10.00
2018-11-04T19:14:14.705Z,9.90
2018-11-04T19:16:43.533Z,9.80
2018-11-04T19:19:12.556Z,9.60
2018-11-04T19:26:41.635Z,9.40
2018-11-04T19:29:10.428Z,9.20
2018-11-04T19:31:39.317Z,9.10
2018-11-04T19:34:08.230Z,9.10
2018-11-04T19:36:37.110Z,8.90
2018-11-04T19:39:08.233Z,8.80
2018-11-04T19:41:37.357Z,8.80
2018-11-04T19:44:06.394Z,8.70
2018-11-04T19:46:35.511Z,8.60
2018-11-04T19:49:06.192Z,8.60
2018-11-04T19:51:35.064Z,8.50
2018-11-04T19:54:03.925Z,8.40
2018-11-04T19:56:32.849Z,8.40
2018-11-04T19:59:01.809Z,8.40
2018-11-04T20:01:30.634Z,8.30
2018-11-04T20:03:59.465Z,8.20
2018-11-04T20:06:28.306Z,8.20
2018-11-04T20:09:02.560Z,8.10
2018-11-04T20:11:31.498Z,8.00
2018-11-04T20:14:05.798Z,8.00
2018-11-04T20:16:34.761Z,8.00
2018-11-04T20:20:08.352Z,8.00
2018-11-04T20:22:37.010Z,7.90
2018-11-04T20:25:11.740Z,7.90
2018-11-04T20:27:41.234Z,7.80
2018-11-04T20:30:11.306Z,7.80
2018-11-04T20:32:45.679Z,7.80
2018-11-04T20:35:15.234Z,7.70
2018-11-04T20:37:44.383Z,7.70
2018-11-04T20:40:18.636Z,7.70
2018-11-04T20:42:47.520Z,7.60
2018-11-04T20:45:16.411Z,7.60
2018-11-04T20:47:50.802Z,7.50
2018-11-04T20:50:24.998Z,7.50
2018-11-04T20:52:53.897Z,7.50
2018-11-04T20:55:22.801Z,7.50
2018-11-04T20:57:57.420Z,7.40
2018-11-04T21:00:26.404Z,7.40
2018-11-04T21:02:55.457Z,7.30
2018-11-04T21:05:24.545Z,7.20
2018-11-04T21:07:53.609Z,7.20
2018-11-04T21:10:22.469Z,7.20
2018-11-04T21:12:51.591Z,7.20
2018-11-04T21:15:20.695Z,7.10
2018-11-04T21:17:49.771Z,7.10
2018-11-04T21:20:18.754Z,7.10
2018-11-04T21:22:47.804Z,7.10
2018-11-04T21:25:16.897Z,7.10
2018-11-04T21:27:45.964Z,7.10
2018-11-04T21:30:14.916Z,7.10
2018-11-04T21:32:44.154Z,7.10
2018-11-04T21:35:13.103Z,7.00
2018-11-04T21:37:42.046Z,6.90
2018-11-04T21:40:11.151Z,6.90
2018-11-04T21:47:39.577Z,6.80
2018-11-04T21:50:09.285Z,6.70
2018-11-04T21:52:38.245Z,6.70
2018-11-04T21:55:08.622Z,6.70
2018-11-04T21:57:37.733Z,6.60
2018-11-04T22:00:08.812Z,6.60
2018-11-04T22:02:38.768Z,6.60
2018-11-04T22:05:08.417Z,6.50
2018-11-04T22:07:37.366Z,6.50
2018-11-04T22:10:09.063Z,6.50
2018-11-04T22:12:39.298Z,6.50
2018-11-04T22:15:08.546Z,6.50
2018-11-04T22:17:38.138Z,6.50
2018-11-04T22:20:10.260Z,6.50
2018-11-04T22:22:40.198Z,6.40
2018-11-04T22:25:09.931Z,6.40
2018-11-04T22:27:38.755Z,6.40
2018-11-04T22:30:08.769Z,6.30
2018-11-04T22:32:38.266Z,6.30
2018-11-04T22:35:08.357Z,6.30
2018-11-04T22:37:37.468Z,6.30
2018-11-04T22:40:07.305Z,6.20
2018-11-04T22:42:36.165Z,6.10
2018-11-04T22:45:05.973Z,6.10
2018-11-04T22:47:34.841Z,6.20
2018-11-04T22:50:03.718Z,6.10
2018-11-04T22:52:32.525Z,6.10
2018-11-04T22:55:01.646Z,6.10
2018-11-04T22:57:30.479Z,6.10
2018-11-04T22:59:59.285Z,6.10
2018-11-04T23:02:28.126Z,6.10
2018-11-04T23:05:02.536Z,6.00
2018-11-04T23:07:31.366Z,6.00
2018-11-04T23:10:01.137Z,6.00
2018-11-04T23:12:29.982Z,6.00
2018-11-04T23:14:58.918Z,6.00
2018-11-04T23:17:27.709Z,6.00
2018-11-04T23:19:56.613Z,6.00
2018-11-04T23:22:25.566Z,5.90
2018-11-04T23:24:54.421Z,5.90
2018-11-04T23:27:23.377Z,5.90
2018-11-04T23:29:52.269Z,5.80
2018-11-04T23:32:21.261Z,5.80
2018-11-04T23:34:50.105Z,5.80
2018-11-04T23:37:18.938Z,5.70
2018-11-04T23:39:47.845Z,5.70
2018-11-04T23:42:16.725Z,5.70
2018-11-04T23:44:45.574Z,5.70
2018-11-04T23:47:14.377Z,5.70
2018-11-04T23:49:43.233Z,5.60
2018-11-04T23:52:12.093Z,5.60
2018-11-04T23:54:40.995Z,5.50
2018-11-04T23:57:09.865Z,5.50
2018-11-04T23:59:38.744Z,5.50
